Manzanita, Oregon
Current Conditions -  °F | °C
As of 6:35 AM on Tuesday 21 Oct 2014 (Local Time) from KTMK Reporting Station
Overcast Overcast  
Wind Chill: 55°   Ceiling: 2400
Heat Index: 55°   Visibility: 10mi
Dew Point: 54°   Wind: 0mph
Humidity: 94%   Direction: NA
Pressure: 29.93"   Gusts: NA
Location:  45.72°N, 123.94°W
Report Text: KTMK 211335Z AUTO 00000KT 10SM SCT020 BKN024 OVC065 13/12 A2993 RMK AO2 P0004
Loading
Personal Weather Stations






























Interactive Weather Map
Tropical Storm Tracking
New forecast layout! Learn more

10-Day Weather Forecast

Advertisements
Track Severe Weather on mobile